createdAt,value
2023-05-10T00:02:14.613Z,4.27
2023-05-10T00:04:41.419Z,4.28
2023-05-10T00:07:08.165Z,4.20
2023-05-10T00:09:34.916Z,4.22
2023-05-10T00:12:01.649Z,4.18
2023-05-10T00:14:28.470Z,4.13
2023-05-10T00:16:55.333Z,4.13
2023-05-10T00:19:22.093Z,4.12
2023-05-10T00:21:48.851Z,4.02
2023-05-10T00:24:15.744Z,4.00
2023-05-10T00:26:43.385Z,3.97
2023-05-10T00:29:10.156Z,3.89
2023-05-10T00:31:36.969Z,3.90
2023-05-10T00:34:03.755Z,3.91
2023-05-10T00:36:30.554Z,3.87
2023-05-10T00:38:57.376Z,3.85
2023-05-10T00:41:24.196Z,3.79
2023-05-10T00:43:50.954Z,3.79
2023-05-10T00:46:18.302Z,3.73
2023-05-10T00:48:45.112Z,3.75
2023-05-10T00:51:11.917Z,3.74
2023-05-10T00:53:38.971Z,3.68
2023-05-10T00:56:06.589Z,3.65
2023-05-10T00:58:33.393Z,3.62
2023-05-10T01:01:00.220Z,3.54
2023-05-10T01:03:27.407Z,3.52
2023-05-10T01:05:54.246Z,3.52
2023-05-10T01:08:21.375Z,3.52
2023-05-10T01:10:50.206Z,3.49
2023-05-10T01:13:34.377Z,3.46
2023-05-10T01:16:03.483Z,3.40
2023-05-10T01:18:31.099Z,3.37
2023-05-10T01:21:15.785Z,3.40
2023-05-10T01:23:52.658Z,3.31
2023-05-10T01:26:37.701Z,3.34
2023-05-10T01:29:31.402Z,3.32
2023-05-10T01:32:32.085Z,3.24
2023-05-10T01:35:03.933Z,3.23
2023-05-10T01:38:08.282Z,3.19
2023-05-10T01:40:48.278Z,3.11
2023-05-10T01:43:24.290Z,3.12
2023-05-10T01:46:06.220Z,3.09
2023-05-10T01:48:32.968Z,3.04
2023-05-10T01:50:59.750Z,3.05
2023-05-10T01:53:26.793Z,2.95
2023-05-10T01:55:54.723Z,2.99
2023-05-10T01:58:23.909Z,3.00
2023-05-10T02:00:51.031Z,3.01
2023-05-10T02:03:17.967Z,3.02
2023-05-10T02:05:46.127Z,3.01
2023-05-10T02:08:12.855Z,2.97
2023-05-10T02:10:39.895Z,2.95
2023-05-10T02:13:07.332Z,2.91
2023-05-10T02:15:34.133Z,2.90
2023-05-10T02:18:01.384Z,2.87
2023-05-10T02:20:28.294Z,2.83
2023-05-10T02:22:55.889Z,2.81
2023-05-10T02:25:23.064Z,2.71
2023-05-10T02:27:49.836Z,2.76
2023-05-10T02:30:17.357Z,2.76
2023-05-10T02:32:44.724Z,2.77
2023-05-10T02:35:11.506Z,2.75
2023-05-10T02:37:38.675Z,2.71
2023-05-10T02:40:06.609Z,2.67
2023-05-10T02:42:34.444Z,2.72
2023-05-10T02:45:02.347Z,2.64
2023-05-10T02:47:29.922Z,2.64
2023-05-10T02:49:56.707Z,2.67
2023-05-10T02:52:26.228Z,2.69
2023-05-10T02:54:55.822Z,2.62
2023-05-10T02:57:34.937Z,2.61
2023-05-10T03:00:03.582Z,2.63
2023-05-10T03:02:31.614Z,2.61
2023-05-10T03:04:58.442Z,2.72
2023-05-10T03:07:25.231Z,2.67
2023-05-10T03:09:52.041Z,2.71
2023-05-10T03:12:40.272Z,2.87
2023-05-10T03:15:31.561Z,3.03
2023-05-10T03:18:03.299Z,3.12
2023-05-10T03:20:37.267Z,3.29
2023-05-10T03:23:25.924Z,3.61
2023-05-10T03:25:52.679Z,3.89
2023-05-10T03:28:19.657Z,4.19
2023-05-10T03:30:46.560Z,4.48
2023-05-10T03:33:14.222Z,4.74
2023-05-10T03:35:41.014Z,5.02
2023-05-10T03:38:07.758Z,5.30
2023-05-10T03:40:34.535Z,5.59
2023-05-10T03:43:01.305Z,5.93
2023-05-10T03:45:28.176Z,6.27
2023-05-10T03:47:55.116Z,6.54
2023-05-10T03:50:22.164Z,6.86
2023-05-10T03:52:49.068Z,7.13
2023-05-10T03:55:16.104Z,7.50
2023-05-10T03:57:42.908Z,7.78
2023-05-10T04:00:10.715Z,8.17
2023-05-10T04:02:38.454Z,8.47
2023-05-10T04:05:05.862Z,8.83
2023-05-10T04:07:32.620Z,9.12
2023-05-10T04:09:59.339Z,9.54
2023-05-10T04:12:26.221Z,9.92
2023-05-10T04:14:52.961Z,10.29
2023-05-10T04:17:19.796Z,10.70
2023-05-10T04:19:46.617Z,11.09
2023-05-10T04:22:13.379Z,11.43
2023-05-10T04:24:40.136Z,11.89
2023-05-10T04:27:06.886Z,12.27
2023-05-10T04:29:33.638Z,12.69
2023-05-10T04:32:00.432Z,13.16
2023-05-10T04:34:27.189Z,13.58
2023-05-10T04:36:53.950Z,13.93
2023-05-10T04:39:20.688Z,14.38
2023-05-10T04:41:47.514Z,14.72
2023-05-10T04:44:14.323Z,15.11
2023-05-10T04:46:41.208Z,15.43
2023-05-10T04:49:07.972Z,15.78
2023-05-10T04:51:34.780Z,16.16
2023-05-10T04:54:06.640Z,16.54
2023-05-10T04:56:34.289Z,16.87
2023-05-10T04:59:01.084Z,17.22
2023-05-10T05:01:27.942Z,17.55
2023-05-10T05:03:54.929Z,17.88
2023-05-10T05:06:25.994Z,18.13
2023-05-10T05:08:52.815Z,18.45
2023-05-10T05:11:19.708Z,18.81
2023-05-10T05:13:46.681Z,19.19
2023-05-10T05:16:13.497Z,19.51
2023-05-10T05:18:40.337Z,19.85
2023-05-10T05:21:19.536Z,20.17
2023-05-10T05:23:46.640Z,20.41
2023-05-10T05:26:13.486Z,20.65
2023-05-10T05:28:40.258Z,20.95
2023-05-10T05:31:08.655Z,21.21
2023-05-10T05:33:35.718Z,21.57
2023-05-10T05:36:03.455Z,21.82
2023-05-10T05:38:30.243Z,22.09
2023-05-10T05:40:57.003Z,22.38
2023-05-10T05:43:23.936Z,22.65
2023-05-10T05:45:50.761Z,22.91
2023-05-10T05:48:17.558Z,23.25
2023-05-10T05:50:44.331Z,23.40
2023-05-10T05:53:11.113Z,23.73
2023-05-10T05:55:38.037Z,24.04
2023-05-10T05:58:04.789Z,24.32
2023-05-10T06:00:31.591Z,24.66
2023-05-10T06:02:58.379Z,24.98
2023-05-10T06:05:25.414Z,25.16
2023-05-10T06:07:52.232Z,25.46
2023-05-10T06:10:19.096Z,25.57
2023-05-10T06:12:46.161Z,25.85
2023-05-10T06:15:13.071Z,26.05
2023-05-10T06:17:39.970Z,26.35
2023-05-10T06:20:07.696Z,26.62
2023-05-10T06:22:34.463Z,26.89
2023-05-10T06:25:01.213Z,27.14
2023-05-10T06:27:27.988Z,27.33
2023-05-10T06:30:02.198Z,27.63
2023-05-10T06:32:36.333Z,27.90
2023-05-10T06:35:03.164Z,28.11
2023-05-10T06:37:29.876Z,28.40
2023-05-10T06:39:57.079Z,28.57
2023-05-10T06:42:26.433Z,28.76
2023-05-10T06:44:53.175Z,27.70
2023-05-10T06:47:19.998Z,26.97
2023-05-10T06:49:46.759Z,25.51
2023-05-10T06:52:13.580Z,24.99
2023-05-10T06:54:40.316Z,25.00
2023-05-10T06:57:16.065Z,24.58
2023-05-10T06:59:46.579Z,24.58
2023-05-10T07:02:13.464Z,24.91
2023-05-10T07:04:40.606Z,24.95
2023-05-10T07:07:07.505Z,25.11
2023-05-10T07:09:34.616Z,25.07
2023-05-10T07:12:03.602Z,25.15
2023-05-10T07:14:31.074Z,25.51
2023-05-10T07:16:57.860Z,25.63
2023-05-10T07:19:24.816Z,25.69
2023-05-10T07:21:52.033Z,25.30
2023-05-10T07:24:18.943Z,25.36
2023-05-10T07:26:45.739Z,25.53
2023-05-10T07:29:12.999Z,25.77
2023-05-10T07:31:39.880Z,26.35
2023-05-10T07:34:06.657Z,26.17
2023-05-10T07:36:33.504Z,25.98
2023-05-10T07:39:00.350Z,26.08
2023-05-10T07:41:27.112Z,26.25
2023-05-10T07:43:53.862Z,26.38
2023-05-10T07:46:20.914Z,26.76
2023-05-10T07:48:47.781Z,26.62
2023-05-10T07:51:14.711Z,26.79
2023-05-10T07:53:41.622Z,27.21
2023-05-10T07:56:42.972Z,27.58
2023-05-10T07:59:11.345Z,27.88
2023-05-10T08:01:39.364Z,28.67
2023-05-10T08:04:06.240Z,28.97
2023-05-10T08:06:33.057Z,28.95
2023-05-10T08:08:59.885Z,29.19
2023-05-10T08:11:26.833Z,29.11
2023-05-10T08:13:54.041Z,28.81
2023-05-10T08:16:21.066Z,29.05
2023-05-10T08:18:48.340Z,29.06
2023-05-10T08:21:15.772Z,29.22
2023-05-10T08:23:42.585Z,29.18
2023-05-10T08:26:09.358Z,28.95
2023-05-10T08:28:36.158Z,28.76
2023-05-10T08:31:02.967Z,28.91
2023-05-10T08:33:29.706Z,29.72
2023-05-10T08:35:56.454Z,30.12
2023-05-10T08:38:23.225Z,29.92
2023-05-10T08:40:51.912Z,30.06
2023-05-10T08:43:18.805Z,30.47
2023-05-10T08:45:48.260Z,30.65
2023-05-10T08:48:15.495Z,30.54
2023-05-10T08:50:43.015Z,30.57
2023-05-10T08:53:14.312Z,29.76
2023-05-10T08:55:43.812Z,29.89
2023-05-10T08:58:10.674Z,30.05
2023-05-10T09:00:38.405Z,30.44
2023-05-10T09:03:05.727Z,30.30
2023-05-10T09:05:32.974Z,30.02
2023-05-10T09:08:02.537Z,29.79
2023-05-10T09:10:29.418Z,29.83
2023-05-10T09:12:59.415Z,29.80
2023-05-10T09:15:26.463Z,29.77
2023-05-10T09:17:53.249Z,28.96
2023-05-10T09:20:20.237Z,28.99
2023-05-10T09:22:47.010Z,29.20
2023-05-10T09:25:14.977Z,29.56
2023-05-10T09:27:42.728Z,29.99
2023-05-10T09:30:10.268Z,29.72
2023-05-10T09:32:48.194Z,29.39
2023-05-10T09:35:19.153Z,29.63
2023-05-10T09:37:48.890Z,30.11
2023-05-10T09:40:20.435Z,30.47
2023-05-10T09:42:59.194Z,30.43
2023-05-10T09:45:27.432Z,30.95
2023-05-10T09:47:54.248Z,30.97
2023-05-10T09:50:21.643Z,30.59
2023-05-10T09:52:52.799Z,31.09
2023-05-10T09:55:24.435Z,30.70
2023-05-10T09:58:00.134Z,30.54
2023-05-10T10:00:27.225Z,30.23
2023-05-10T10:03:00.777Z,30.65
2023-05-10T10:05:34.751Z,30.43
2023-05-10T10:08:05.972Z,30.85
2023-05-10T10:10:33.546Z,31.00
2023-05-10T10:13:00.771Z,30.90
2023-05-10T10:15:27.688Z,31.11
2023-05-10T10:17:54.728Z,31.04
2023-05-10T10:20:23.357Z,31.18
2023-05-10T10:22:50.223Z,31.19
2023-05-10T10:25:18.459Z,30.93
2023-05-10T10:27:54.667Z,31.82
2023-05-10T10:30:50.697Z,32.14
2023-05-10T10:33:36.213Z,31.99
2023-05-10T10:36:03.739Z,32.52
2023-05-10T10:38:49.068Z,32.75
2023-05-10T10:41:37.906Z,32.70
2023-05-10T10:44:24.671Z,32.51
2023-05-10T10:47:14.989Z,32.50
2023-05-10T10:49:45.001Z,32.78
2023-05-10T10:52:37.164Z,32.63
2023-05-10T10:55:08.057Z,32.61
2023-05-10T10:58:05.698Z,31.78
2023-05-10T11:00:41.045Z,31.37
2023-05-10T11:03:15.841Z,31.78
2023-05-10T11:05:46.549Z,32.05
2023-05-10T11:08:32.356Z,32.19
2023-05-10T11:11:01.941Z,31.97
2023-05-10T11:13:35.697Z,32.11
2023-05-10T11:16:24.926Z,32.19
2023-05-10T11:18:57.953Z,32.59
2023-05-10T11:21:24.865Z,32.42
2023-05-10T11:23:53.331Z,32.16
2023-05-10T11:26:20.312Z,32.00
2023-05-10T11:28:48.375Z,32.36
2023-05-10T11:31:16.173Z,32.47
2023-05-10T11:33:46.930Z,32.33
2023-05-10T11:36:20.412Z,32.60
2023-05-10T11:38:47.460Z,32.73
2023-05-10T11:41:14.276Z,33.10
2023-05-10T11:43:41.205Z,32.99
2023-05-10T11:46:08.773Z,33.00
2023-05-10T11:48:35.819Z,33.14
2023-05-10T11:51:03.210Z,32.52
2023-05-10T11:53:33.784Z,32.26
2023-05-10T11:56:05.491Z,32.36
2023-05-10T11:58:32.876Z,32.73
2023-05-10T12:01:00.703Z,32.97
2023-05-10T12:03:28.900Z,33.55
2023-05-10T12:05:56.523Z,34.13
2023-05-10T12:08:27.239Z,34.17
2023-05-10T12:10:54.999Z,34.24
2023-05-10T12:13:22.144Z,34.12
2023-05-10T12:15:48.974Z,34.18
2023-05-10T12:18:16.117Z,34.18
2023-05-10T12:20:43.578Z,34.12
2023-05-10T12:23:11.005Z,33.76
2023-05-10T12:25:38.304Z,33.99
2023-05-10T12:28:06.178Z,33.85
2023-05-10T12:30:50.753Z,33.75
2023-05-10T12:33:18.423Z,34.05
2023-05-10T12:35:52.974Z,34.59
2023-05-10T12:38:44.270Z,34.65
2023-05-10T12:41:12.433Z,34.14
2023-05-10T12:43:39.883Z,33.61
2023-05-10T12:46:14.044Z,33.49
2023-05-10T12:48:41.664Z,33.91
2023-05-10T12:51:12.919Z,34.23
2023-05-10T12:53:41.812Z,33.51
2023-05-10T12:56:11.052Z,33.40
2023-05-10T12:58:37.893Z,33.24
2023-05-10T13:01:05.873Z,33.56
2023-05-10T13:03:32.754Z,34.02
2023-05-10T13:05:59.678Z,33.59
2023-05-10T13:08:26.672Z,34.03
2023-05-10T13:10:53.395Z,34.14
2023-05-10T13:13:20.133Z,33.19
2023-05-10T13:15:46.902Z,32.76
2023-05-10T13:18:14.068Z,32.87
2023-05-10T13:20:40.977Z,33.35
2023-05-10T13:23:07.673Z,33.11
2023-05-10T13:25:35.433Z,33.38
2023-05-10T13:28:02.274Z,33.08
2023-05-10T13:30:29.872Z,33.09
2023-05-10T13:32:56.744Z,32.87
2023-05-10T13:35:23.586Z,33.04
2023-05-10T13:37:50.434Z,33.21
2023-05-10T13:40:17.989Z,32.63
2023-05-10T13:42:44.965Z,32.70
2023-05-10T13:45:13.422Z,32.06
2023-05-10T13:47:40.384Z,32.60
2023-05-10T13:50:07.917Z,32.58
2023-05-10T13:52:34.848Z,32.78
2023-05-10T13:55:01.694Z,32.76
2023-05-10T13:57:29.856Z,33.29
2023-05-10T13:59:58.150Z,33.56
2023-05-10T14:02:25.909Z,33.09
2023-05-10T14:04:52.787Z,32.41
2023-05-10T14:07:19.556Z,31.93
2023-05-10T14:09:46.318Z,31.22
2023-05-10T14:12:13.170Z,30.94
2023-05-10T14:14:40.180Z,30.87
2023-05-10T14:17:07.068Z,30.69
2023-05-10T14:19:35.048Z,30.35
2023-05-10T14:22:01.866Z,30.37
2023-05-10T14:24:28.764Z,30.01
2023-05-10T14:26:55.521Z,29.92
2023-05-10T14:29:23.115Z,29.36
2023-05-10T14:31:51.039Z,29.12
2023-05-10T14:34:17.928Z,29.04
2023-05-10T14:36:44.700Z,29.03
2023-05-10T14:39:14.345Z,29.23
2023-05-10T14:41:43.996Z,29.09
2023-05-10T14:44:11.168Z,29.06
2023-05-10T14:46:38.381Z,29.20
2023-05-10T14:49:05.170Z,28.63
2023-05-10T14:51:32.816Z,28.88
2023-05-10T14:53:59.925Z,28.59
2023-05-10T14:56:29.402Z,28.38
2023-05-10T14:58:56.601Z,27.79
2023-05-10T15:01:24.025Z,27.60
2023-05-10T15:03:51.813Z,27.47
2023-05-10T15:06:19.272Z,27.34
2023-05-10T15:08:46.886Z,27.21
2023-05-10T15:11:13.695Z,26.91
2023-05-10T15:13:40.569Z,26.40
2023-05-10T15:16:07.457Z,26.12
2023-05-10T15:18:34.300Z,25.66
2023-05-10T15:21:01.132Z,25.56
2023-05-10T15:23:28.152Z,25.31
2023-05-10T15:25:56.877Z,24.86
2023-05-10T15:28:23.775Z,24.35
2023-05-10T15:30:51.001Z,23.84
2023-05-10T15:33:17.819Z,23.63
2023-05-10T15:35:44.581Z,23.33
2023-05-10T15:38:11.390Z,23.21
2023-05-10T15:40:38.344Z,23.09
2023-05-10T15:43:06.379Z,22.92
2023-05-10T15:45:34.598Z,22.49
2023-05-10T15:48:03.698Z,22.30
2023-05-10T15:50:30.447Z,22.40
2023-05-10T15:52:57.385Z,22.44
2023-05-10T15:55:24.076Z,22.43
2023-05-10T15:57:51.497Z,22.43
2023-05-10T16:00:19.120Z,22.06
2023-05-10T16:02:46.129Z,22.04
2023-05-10T16:05:14.009Z,21.87
2023-05-10T16:07:42.134Z,21.76
2023-05-10T16:10:10.817Z,21.49
2023-05-10T16:12:37.988Z,21.23
2023-05-10T16:15:05.261Z,20.88
2023-05-10T16:17:32.407Z,20.58
2023-05-10T16:19:59.176Z,20.16
2023-05-10T16:22:27.451Z,19.87
2023-05-10T16:24:54.306Z,19.60
2023-05-10T16:27:21.163Z,19.42
2023-05-10T16:29:48.245Z,19.11
2023-05-10T16:32:14.939Z,18.93
2023-05-10T16:34:41.795Z,18.81
2023-05-10T16:37:08.622Z,18.51
2023-05-10T16:39:35.352Z,18.27
2023-05-10T16:42:02.176Z,18.05
2023-05-10T16:44:28.991Z,18.01
2023-05-10T16:46:56.085Z,17.92
2023-05-10T16:49:24.498Z,17.81
2023-05-10T16:51:52.813Z,17.69
2023-05-10T16:54:20.810Z,17.62
2023-05-10T16:56:47.729Z,17.63
2023-05-10T16:59:14.445Z,17.53
2023-05-10T17:01:41.249Z,17.49
2023-05-10T17:04:08.434Z,17.33
2023-05-10T17:06:36.941Z,17.17
2023-05-10T17:09:15.905Z,17.14
2023-05-10T17:11:42.721Z,17.09
2023-05-10T17:14:10.262Z,16.96
2023-05-10T17:16:37.079Z,16.87
2023-05-10T17:19:03.898Z,16.80
2023-05-10T17:21:31.921Z,16.63
2023-05-10T17:23:58.625Z,16.56
2023-05-10T17:26:27.609Z,16.38
2023-05-10T17:28:55.010Z,16.29
2023-05-10T17:31:21.812Z,16.26
2023-05-10T17:33:53.317Z,16.13
2023-05-10T17:36:20.099Z,15.98
2023-05-10T17:38:46.960Z,15.88
2023-05-10T17:41:14.529Z,15.70
2023-05-10T17:43:41.267Z,15.59
2023-05-10T17:46:08.081Z,15.38
2023-05-10T17:48:36.959Z,15.30
2023-05-10T17:51:04.403Z,15.26
2023-05-10T17:53:31.321Z,15.14
2023-05-10T17:55:59.059Z,15.03
2023-05-10T17:58:25.862Z,15.02
2023-05-10T18:00:52.959Z,14.90
2023-05-10T18:03:19.751Z,14.88
2023-05-10T18:05:47.106Z,14.81
2023-05-10T18:08:14.321Z,14.68
2023-05-10T18:10:41.555Z,14.59
2023-05-10T18:13:08.944Z,14.48
2023-05-10T18:15:35.823Z,14.32
2023-05-10T18:18:04.233Z,14.27
2023-05-10T18:20:31.760Z,14.16
2023-05-10T18:22:58.667Z,14.09
2023-05-10T18:25:25.819Z,14.01
2023-05-10T18:27:52.819Z,13.92
2023-05-10T18:30:19.646Z,13.83
2023-05-10T18:32:46.444Z,13.73
2023-05-10T18:35:13.163Z,13.77
2023-05-10T18:37:39.948Z,13.61
2023-05-10T18:40:12.619Z,13.49
2023-05-10T18:42:39.377Z,13.38
2023-05-10T18:45:06.806Z,13.22
2023-05-10T18:47:33.679Z,13.08
2023-05-10T18:50:00.597Z,12.98
2023-05-10T18:52:27.378Z,12.85
2023-05-10T18:54:54.071Z,12.70
2023-05-10T18:57:22.094Z,12.54
2023-05-10T18:59:49.178Z,12.44
2023-05-10T19:02:15.924Z,12.28
2023-05-10T19:04:42.815Z,12.09
2023-05-10T19:07:09.782Z,12.01
2023-05-10T19:09:36.667Z,11.92
2023-05-10T19:12:03.482Z,11.81
2023-05-10T19:14:30.242Z,11.71
2023-05-10T19:16:57.030Z,11.59
2023-05-10T19:19:25.308Z,11.54
2023-05-10T19:21:52.075Z,11.36
2023-05-10T19:24:21.872Z,11.30
2023-05-10T19:26:49.362Z,11.15
2023-05-10T19:29:16.482Z,11.10
2023-05-10T19:31:44.221Z,11.05
2023-05-10T19:34:11.770Z,10.93
2023-05-10T19:36:38.534Z,10.78
2023-05-10T19:39:05.481Z,10.69
2023-05-10T19:41:32.270Z,10.60
2023-05-10T19:43:59.901Z,10.53
2023-05-10T19:46:27.169Z,10.44
2023-05-10T19:48:53.932Z,10.31
2023-05-10T19:51:20.691Z,10.26
2023-05-10T19:53:47.444Z,10.16
2023-05-10T19:56:14.401Z,10.11
2023-05-10T19:58:41.227Z,9.97
2023-05-10T20:01:08.381Z,9.79
2023-05-10T20:03:35.841Z,9.69
2023-05-10T20:06:03.008Z,9.56
2023-05-10T20:08:30.036Z,9.50
2023-05-10T20:11:02.676Z,9.42
2023-05-10T20:13:29.644Z,9.31
2023-05-10T20:15:59.946Z,9.15
2023-05-10T20:18:27.172Z,9.17
2023-05-10T20:20:55.228Z,9.11
2023-05-10T20:23:22.411Z,9.01
2023-05-10T20:25:49.246Z,8.82
2023-05-10T20:28:16.005Z,8.74
2023-05-10T20:30:42.874Z,8.75
2023-05-10T20:33:09.842Z,8.65
2023-05-10T20:35:36.702Z,8.62
2023-05-10T20:38:04.180Z,8.53
2023-05-10T20:40:31.903Z,8.48
2023-05-10T20:42:58.732Z,8.40
2023-05-10T20:45:25.526Z,8.31
2023-05-10T20:47:53.581Z,8.24
2023-05-10T20:50:20.791Z,8.12
2023-05-10T20:52:48.046Z,8.13
2023-05-10T20:55:14.933Z,8.12
2023-05-10T20:57:41.760Z,8.00
2023-05-10T21:00:09.622Z,7.94
2023-05-10T21:02:36.463Z,7.90
2023-05-10T21:05:03.378Z,7.77
2023-05-10T21:07:32.399Z,7.79
2023-05-10T21:09:59.235Z,7.71
2023-05-10T21:12:26.121Z,7.70
2023-05-10T21:14:52.868Z,7.64
2023-05-10T21:17:20.355Z,7.59
2023-05-10T21:19:47.329Z,7.55
2023-05-10T21:22:14.059Z,7.44
2023-05-10T21:24:40.999Z,7.39
2023-05-10T21:27:09.131Z,7.42
2023-05-10T21:29:35.894Z,7.39
2023-05-10T21:32:02.888Z,7.33
2023-05-10T21:34:29.940Z,7.31
2023-05-10T21:36:56.701Z,7.27
2023-05-10T21:39:23.445Z,7.16
2023-05-10T21:41:50.186Z,7.16
2023-05-10T21:44:16.916Z,7.07
2023-05-10T21:46:44.322Z,7.08
2023-05-10T21:49:11.143Z,7.04
2023-05-10T21:51:37.943Z,7.00
2023-05-10T21:54:04.934Z,6.93
2023-05-10T21:56:31.633Z,6.92
2023-05-10T21:58:58.641Z,6.97
2023-05-10T22:01:25.911Z,6.83
2023-05-10T22:03:52.700Z,6.82
2023-05-10T22:06:19.459Z,6.79
2023-05-10T22:08:46.298Z,6.75
2023-05-10T22:11:13.079Z,6.66
2023-05-10T22:13:39.856Z,6.66
2023-05-10T22:16:07.043Z,6.64
2023-05-10T22:18:33.860Z,6.61
2023-05-10T22:21:00.927Z,6.59
2023-05-10T22:23:27.654Z,6.55
2023-05-10T22:25:54.371Z,6.50
2023-05-10T22:28:21.414Z,6.43
2023-05-10T22:30:48.544Z,6.42
2023-05-10T22:33:15.286Z,6.38
2023-05-10T22:35:42.046Z,6.34
2023-05-10T22:38:08.776Z,6.24
2023-05-10T22:40:35.538Z,6.28
2023-05-10T22:43:02.787Z,6.25
2023-05-10T22:45:29.551Z,6.20
2023-05-10T22:47:56.420Z,6.16
2023-05-10T22:50:23.525Z,6.07
2023-05-10T22:52:50.350Z,6.07
2023-05-10T22:55:17.418Z,6.00
2023-05-10T22:57:44.189Z,5.96
2023-05-10T23:00:11.486Z,5.95
2023-05-10T23:02:38.305Z,5.97
2023-05-10T23:05:05.844Z,5.90
2023-05-10T23:07:32.894Z,5.88
2023-05-10T23:09:59.677Z,5.84
2023-05-10T23:12:26.424Z,5.77
2023-05-10T23:14:53.394Z,5.77
2023-05-10T23:17:20.177Z,5.71
2023-05-10T23:19:47.145Z,5.67
2023-05-10T23:22:13.898Z,5.68
2023-05-10T23:24:40.718Z,5.67
2023-05-10T23:27:07.543Z,5.60
2023-05-10T23:29:34.854Z,5.57
2023-05-10T23:32:01.682Z,5.53
2023-05-10T23:34:28.415Z,5.54
2023-05-10T23:36:55.181Z,5.47
2023-05-10T23:39:22.083Z,5.50
2023-05-10T23:41:48.799Z,5.42
2023-05-10T23:44:15.682Z,5.43
2023-05-10T23:46:42.426Z,5.40
2023-05-10T23:49:09.176Z,5.37
2023-05-10T23:51:36.143Z,5.33
2023-05-10T23:54:03.034Z,5.30
2023-05-10T23:56:29.878Z,5.26
2023-05-10T23:58:56.578Z,5.15
